Time;durP1;ratioP1;P1;durP2;ratioP2;P2;SDS_P1;SDS_P2;PMS_P1;PMS_P2;Temp;Humidity;BMP_temperature;BMP_pressure;BME280_temperature;BME280_humidity;BME280_pressure;Samples;Min_cycle;Max_cycle;Signal;HPM_P1;HPM_P2
2023/10/02 00:00:41;;;;;;;14.03;9.50;;;10.30;99.90;;;;;;5094479;28;20200;-67
2023/10/02 00:03:09;;;;;;;15.33;9.80;;;10.20;99.90;;;;;;5094442;28;20204;-67
2023/10/02 00:05:51;;;;;;;13.37;9.90;;;10.10;99.90;;;;;;5094250;28;20223;-67
2023/10/02 00:08:42;;;;;;;13.03;8.90;;;10.10;99.90;;;;;;5094356;28;20287;-67
2023/10/02 00:11:35;;;;;;;15.67;9.47;;;10.10;99.90;;;;;;5094170;28;20224;-66
2023/10/02 00:14:19;;;;;;;16.13;10.13;;;10.10;99.90;;;;;;5094007;28;20642;-67
2023/10/02 00:16:58;;;;;;;13.70;9.53;;;10.10;99.90;;;;;;5094071;28;20647;-66
2023/10/02 00:19:29;;;;;;;13.70;9.77;;;10.00;99.90;;;;;;5094076;28;20206;-67
2023/10/02 00:21:59;;;;;;;14.43;10.20;;;10.00;99.90;;;;;;5094045;28;20197;-67
2023/10/02 00:24:28;;;;;;;15.23;10.60;;;9.90;99.90;;;;;;5093888;28;20203;-67
2023/10/02 00:26:57;;;;;;;14.10;10.13;;;10.00;99.90;;;;;;5094049;28;20273;-68
2023/10/02 00:29:25;;;;;;;12.77;8.73;;;10.00;99.90;;;;;;5093994;28;20283;-67
2023/10/02 00:31:52;;;;;;;15.40;9.87;;;10.00;99.90;;;;;;5093813;28;20246;-67
2023/10/02 00:34:30;;;;;;;15.27;9.33;;;10.10;99.90;;;;;;5093790;28;20200;-67
2023/10/02 00:36:57;;;;;;;12.30;9.13;;;10.00;99.90;;;;;;5093631;28;20547;-68
2023/10/02 00:39:30;;;;;;;13.67;9.93;;;10.00;99.90;;;;;;5093814;28;20200;-68
2023/10/02 00:42:24;;;;;;;14.73;10.13;;;9.90;99.90;;;;;;5093411;28;20228;-67
2023/10/02 00:44:52;;;;;;;16.63;10.17;;;9.90;99.90;;;;;;5093698;28;20242;-68
2023/10/02 00:47:35;;;;;;;16.87;10.53;;;9.90;99.90;;;;;;5092585;28;20594;-67
2023/10/02 00:50:08;;;;;;;15.60;10.47;;;9.90;99.90;;;;;;5093744;28;20249;-67
2023/10/02 00:52:40;;;;;;;14.90;9.83;;;9.80;99.90;;;;;;5093587;28;20216;-66
2023/10/02 00:55:08;;;;;;;17.10;10.43;;;9.80;99.90;;;;;;5093436;28;20622;-67
2023/10/02 00:57:38;;;;;;;14.83;10.37;;;9.70;99.90;;;;;;5093295;28;20200;-67
2023/10/02 01:00:17;;;;;;;14.00;9.53;;;9.70;99.90;;;;;;5093345;28;20548;-66
2023/10/02 01:02:46;;;;;;;14.80;10.53;;;9.60;99.90;;;;;;5093440;28;20200;-66
2023/10/02 01:05:16;;;;;;;15.10;10.00;;;9.60;99.90;;;;;;5093304;28;20218;-66
2023/10/02 01:07:43;;;;;;;14.77;10.17;;;9.70;99.90;;;;;;5093116;28;20223;-66
2023/10/02 01:10:17;;;;;;;15.47;9.40;;;9.70;99.90;;;;;;5109430;28;20195;-67
2023/10/02 01:12:49;;;;;;;13.40;10.07;;;9.60;99.90;;;;;;5113062;28;20668;-67
2023/10/02 01:15:19;;;;;;;16.47;10.33;;;9.60;99.90;;;;;;5113587;28;20540;-67
2023/10/02 01:17:48;;;;;;;13.50;9.13;;;9.60;99.90;;;;;;5113489;28;20230;-67
2023/10/02 01:20:23;;;;;;;15.67;10.00;;;9.50;99.90;;;;;;5113409;28;20211;-67
2023/10/02 01:22:52;;;;;;;15.83;10.23;;;9.40;99.90;;;;;;5113694;28;20183;-67
2023/10/02 01:25:23;;;;;;;12.73;9.20;;;9.40;99.90;;;;;;5113202;28;20757;-67
2023/10/02 01:27:53;;;;;;;15.60;10.17;;;9.30;99.90;;;;;;5113348;28;20223;-68
2023/10/02 01:30:21;;;;;;;17.20;9.43;;;9.40;99.90;;;;;;5113226;28;20196;-68
2023/10/02 01:33:11;;;;;;;15.67;10.37;;;9.40;99.90;;;;;;5113135;28;20710;-67
2023/10/02 01:35:39;;;;;;;15.53;8.90;;;9.40;99.90;;;;;;5113413;28;20204;-68
2023/10/02 01:38:12;;;;;;;14.57;9.47;;;9.30;99.90;;;;;;5113149;28;20203;-66
2023/10/02 01:40:42;;;;;;;15.23;10.23;;;9.40;99.90;;;;;;5112955;28;20238;-66
2023/10/02 01:43:15;;;;;;;16.70;10.43;;;9.40;99.90;;;;;;5113142;28;20536;-66
2023/10/02 01:45:43;;;;;;;15.60;10.07;;;9.50;99.90;;;;;;5112961;28;20264;-68
2023/10/02 01:48:13;;;;;;;17.30;9.77;;;9.50;99.90;;;;;;5112871;28;20755;-67
2023/10/02 01:50:42;;;;;;;14.30;9.50;;;9.50;99.90;;;;;;5113105;28;20256;-67
2023/10/02 01:53:26;;;;;;;13.97;10.00;;;9.60;99.90;;;;;;5113230;28;20195;-68
2023/10/02 01:56:00;;;;;;;15.40;10.03;;;9.50;99.90;;;;;;5112983;28;20200;-67
2023/10/02 01:58:27;;;;;;;18.40;10.23;;;9.40;99.90;;;;;;5115398;28;20658;-68
2023/10/02 02:00:54;;;;;;;13.67;9.63;;;9.50;99.90;;;;;;5117381;28;20199;-68
2023/10/02 02:03:22;;;;;;;17.77;9.77;;;9.50;99.90;;;;;;5117127;28;20559;-68
2023/10/02 02:05:49;;;;;;;14.40;10.13;;;9.50;99.90;;;;;;5117123;28;20200;-68
2023/10/02 02:08:22;;;;;;;15.93;9.47;;;9.30;99.90;;;;;;5116920;28;20262;-68
2023/10/02 02:10:51;;;;;;;15.37;9.67;;;9.20;99.90;;;;;;5117197;28;20203;-68
2023/10/02 02:13:19;;;;;;;15.77;10.03;;;9.20;99.90;;;;;;5117101;28;20286;-68
2023/10/02 02:15:47;;;;;;;15.13;9.53;;;9.20;99.90;;;;;;5116926;28;20221;-67
2023/10/02 02:18:15;;;;;;;13.93;9.63;;;9.30;99.90;;;;;;5116932;28;20195;-68
2023/10/02 02:20:44;;;;;;;14.33;10.10;;;9.30;99.90;;;;;;5116774;28;20217;-68
2023/10/02 02:23:14;;;;;;;16.00;9.77;;;9.30;99.90;;;;;;5116715;28;20204;-68
2023/10/02 02:25:41;;;;;;;15.47;9.10;;;9.20;99.90;;;;;;5116886;28;20280;-68
2023/10/02 02:28:08;;;;;;;14.57;9.07;;;9.20;99.90;;;;;;5116700;28;20242;-68
2023/10/02 02:30:40;;;;;;;13.47;9.43;;;9.20;99.90;;;;;;5116511;28;20559;-68
2023/10/02 02:33:08;;;;;;;15.03;9.87;;;9.10;99.90;;;;;;5116430;28;20662;-68
2023/10/02 02:35:35;;;;;;;13.57;9.30;;;9.00;99.90;;;;;;5116508;28;20231;-67
2023/10/02 02:38:02;;;;;;;16.23;10.20;;;9.10;99.90;;;;;;5116613;28;20208;-67
2023/10/02 02:40:30;;;;;;;13.80;8.97;;;8.90;99.90;;;;;;5116307;28;20235;-68
2023/10/02 02:42:58;;;;;;;13.57;9.07;;;9.00;99.90;;;;;;5116467;28;20205;-68
2023/10/02 02:45:28;;;;;;;14.20;9.40;;;8.90;99.90;;;;;;5116446;28;20200;-67
2023/10/02 02:47:57;;;;;;;15.23;10.07;;;9.00;99.90;;;;;;5116289;28;20288;-67
2023/10/02 02:50:28;;;;;;;13.23;9.43;;;9.10;99.90;;;;;;5116409;28;20199;-67
2023/10/02 02:53:16;;;;;;;14.13;9.13;;;9.20;99.90;;;;;;5116371;28;20330;-67
2023/10/02 02:55:42;;;;;;;16.10;10.43;;;9.10;99.90;;;;;;5116036;28;20202;-67
2023/10/02 02:58:09;;;;;;;13.13;9.07;;;9.00;99.90;;;;;;5116068;28;20287;-67
2023/10/02 03:00:36;;;;;;;13.07;9.43;;;9.00;99.90;;;;;;5115956;28;20196;-67
2023/10/02 03:03:29;;;;;;;14.20;9.43;;;8.90;99.90;;;;;;5116207;28;20290;-67
2023/10/02 03:05:52;;;;;;;13.53;9.07;;;8.80;99.90;;;;;;5115756;28;20199;-67
2023/10/02 03:08:19;;;;;;;16.50;9.50;;;8.80;99.90;;;;;;5115870;28;20228;-67
2023/10/02 03:10:46;;;;;;;16.60;9.90;;;8.90;99.90;;;;;;5115044;28;20655;-67
2023/10/02 03:13:16;;;;;;;13.07;9.73;;;8.90;99.90;;;;;;5115971;28;20192;-68
2023/10/02 03:15:46;;;;;;;16.17;9.63;;;9.00;99.90;;;;;;5118878;28;20191;-68
2023/10/02 03:20:59;;;;;;;13.70;9.83;;;9.10;99.90;;;;;;5118898;28;20574;-67
2023/10/02 03:23:27;;;;;;;16.13;10.03;;;9.00;99.90;;;;;;5115689;28;20220;-67
2023/10/02 03:25:56;;;;;;;15.70;9.83;;;9.00;99.90;;;;;;5115727;28;20191;-67
2023/10/02 03:28:28;;;;;;;14.67;10.53;;;9.00;99.90;;;;;;5115447;28;20238;-67
2023/10/02 03:30:55;;;;;;;15.47;10.30;;;9.00;99.90;;;;;;5115429;28;20671;-67
2023/10/02 03:33:25;;;;;;;18.30;11.00;;;8.90;99.90;;;;;;5115378;28;20589;-67
2023/10/02 03:35:58;;;;;;;15.50;10.87;;;8.80;99.90;;;;;;5115192;28;20210;-67
2023/10/02 03:38:26;;;;;;;18.03;10.77;;;8.80;99.90;;;;;;5115479;28;20196;-67
2023/10/02 03:40:57;;;;;;;18.57;11.10;;;8.70;99.90;;;;;;5115250;28;20223;-67
2023/10/02 03:43:34;;;;;;;16.47;11.30;;;8.70;99.90;;;;;;5115217;28;20195;-67
2023/10/02 03:46:01;;;;;;;15.97;11.03;;;8.70;99.90;;;;;;5115122;28;20658;-67
2023/10/02 03:48:29;;;;;;;16.33;11.07;;;8.70;99.90;;;;;;5114902;28;20770;-67
2023/10/02 03:50:56;;;;;;;15.70;11.10;;;8.70;99.90;;;;;;5115185;28;20249;-67
2023/10/02 03:53:29;;;;;;;18.57;11.03;;;8.70;99.90;;;;;;5115188;28;20296;-67
2023/10/02 03:56:36;;;;;;;15.57;10.60;;;8.80;99.90;;;;;;5115139;28;20605;-66
2023/10/02 03:58:48;;;;;;;17.70;11.20;;;8.90;99.90;;;;;;5114644;28;20202;-67
2023/10/02 04:01:17;;;;;;;18.67;11.13;;;8.90;99.90;;;;;;5115003;28;20256;-67
2023/10/02 04:04:19;;;;;;;17.60;10.77;;;8.90;99.90;;;;;;5114958;28;20264;-66
2023/10/02 04:06:42;;;;;;;17.77;10.90;;;8.80;99.90;;;;;;5114657;28;20202;-67
2023/10/02 04:09:12;;;;;;;17.60;11.50;;;8.70;99.90;;;;;;5114605;28;20200;-67
2023/10/02 04:11:39;;;;;;;16.47;11.37;;;8.80;99.90;;;;;;5114821;28;20200;-66
2023/10/02 04:14:17;;;;;;;15.03;10.77;;;8.80;99.90;;;;;;5114498;28;20678;-67
2023/10/02 04:16:46;;;;;;;18.33;11.07;;;8.70;99.90;;;;;;5114473;28;20196;-67
2023/10/02 04:19:15;;;;;;;17.70;10.57;;;8.60;99.90;;;;;;5114445;28;20264;-67
2023/10/02 04:21:44;;;;;;;18.50;11.03;;;8.60;99.90;;;;;;5113268;28;20214;-68
2023/10/02 04:24:10;;;;;;;16.43;10.50;;;8.60;99.90;;;;;;5114521;28;20238;-67
2023/10/02 04:26:41;;;;;;;16.77;10.73;;;8.60;99.90;;;;;;5114443;28;20231;-68
2023/10/02 04:29:15;;;;;;;16.90;11.03;;;8.50;99.90;;;;;;5114301;28;20281;-67
2023/10/02 04:31:44;;;;;;;17.60;11.40;;;8.70;99.90;;;;;;5114259;28;20195;-67
2023/10/02 04:34:24;;;;;;;16.23;10.67;;;8.60;99.90;;;;;;5114096;28;20195;-68
2023/10/02 04:36:51;;;;;;;17.37;10.87;;;8.50;99.90;;;;;;5114290;28;20248;-68
2023/10/02 04:42:14;;;;;;;16.70;10.33;;;8.60;99.90;;;;;;5113946;28;20293;-68
2023/10/02 04:44:44;;;;;;;19.27;11.27;;;8.50;99.90;;;;;;5113997;28;20524;-68
2023/10/02 04:47:17;;;;;;;15.57;11.30;;;8.50;99.90;;;;;;5113879;28;20199;-68
2023/10/02 04:50:34;;;;;;;18.73;11.40;;;8.50;99.90;;;;;;5114043;28;20206;-68
2023/10/02 04:55:24;;;;;;;19.73;11.77;;;8.60;99.90;;;;;;5113600;28;20244;-68
2023/10/02 04:57:54;;;;;;;18.23;11.80;;;8.60;99.90;;;;;;5113889;28;20238;-68
2023/10/02 05:00:32;;;;;;;17.27;11.33;;;8.70;99.90;;;;;;5113700;28;20208;-68
2023/10/02 05:03:17;;;;;;;18.40;12.53;;;8.60;99.90;;;;;;5113812;28;20601;-68
2023/10/02 05:05:48;;;;;;;19.87;12.20;;;8.50;99.90;;;;;;5113420;28;20203;-67
2023/10/02 05:08:21;;;;;;;19.47;12.33;;;8.50;99.90;;;;;;5113568;28;20223;-67
2023/10/02 05:10:49;;;;;;;20.80;11.87;;;8.60;99.90;;;;;;5113567;28;20191;-67
2023/10/02 05:13:44;;;;;;;18.77;11.63;;;8.60;99.90;;;;;;5113375;28;20563;-67
2023/10/02 05:16:11;;;;;;;20.27;11.90;;;8.70;99.90;;;;;;5113231;28;20199;-67
2023/10/02 05:18:44;;;;;;;17.80;11.90;;;8.70;99.90;;;;;;5113575;28;20192;-67
2023/10/02 05:21:11;;;;;;;16.93;12.20;;;8.70;99.90;;;;;;5113284;28;20195;-67
2023/10/02 05:23:39;;;;;;;19.40;12.03;;;8.80;99.90;;;;;;5113256;28;20200;-68
2023/10/02 05:26:04;;;;;;;17.43;11.60;;;8.80;99.90;;;;;;5113113;28;20227;-68
2023/10/02 05:28:42;;;;;;;18.70;11.93;;;8.70;99.90;;;;;;5113038;28;20729;-68
2023/10/02 05:31:11;;;;;;;17.53;11.77;;;8.80;99.90;;;;;;5113428;28;20601;-68
2023/10/02 05:33:38;;;;;;;16.83;11.23;;;8.80;99.90;;;;;;5112918;28;20196;-68
2023/10/02 05:36:07;;;;;;;17.63;11.73;;;8.80;99.90;;;;;;5113147;28;20253;-67
2023/10/02 05:38:34;;;;;;;18.73;12.00;;;8.80;99.90;;;;;;5113091;28;20207;-68
2023/10/02 05:41:03;;;;;;;19.83;12.57;;;8.90;99.90;;;;;;5112729;28;20238;-68
2023/10/02 05:43:32;;;;;;;18.93;12.27;;;9.00;99.90;;;;;;5112859;28;20196;-68
2023/10/02 05:46:01;;;;;;;20.17;12.37;;;9.00;99.90;;;;;;5072513;28;20232;-67
2023/10/02 05:48:37;;;;;;;20.70;12.97;;;9.10;99.90;;;;;;5072421;28;20646;-68
2023/10/02 05:51:09;;;;;;;15.80;12.17;;;9.20;99.90;;;;;;5072610;28;20296;-68
2023/10/02 05:53:36;;;;;;;17.90;11.80;;;9.30;99.90;;;;;;5072040;28;20291;-68
2023/10/02 05:56:13;;;;;;;19.17;12.53;;;9.40;99.90;;;;;;5072712;28;20596;-68
2023/10/02 05:58:41;;;;;;;20.17;12.57;;;9.50;99.90;;;;;;5072393;28;20209;-68
2023/10/02 06:01:18;;;;;;;18.33;12.20;;;9.70;99.90;;;;;;5072420;28;20275;-68
2023/10/02 06:03:53;;;;;;;19.57;12.10;;;9.80;99.90;;;;;;5072001;28;20197;-68
2023/10/02 06:06:21;;;;;;;20.13;13.03;;;9.80;99.90;;;;;;5072577;28;20196;-69
2023/10/02 06:08:54;;;;;;;19.43;11.90;;;10.00;99.90;;;;;;5071992;28;20263;-68
2023/10/02 06:11:32;;;;;;;18.37;13.17;;;10.20;99.90;;;;;;5072475;28;20223;-68
2023/10/02 06:14:09;;;;;;;22.73;13.40;;;10.30;99.90;;;;;;5072433;28;20200;-68
2023/10/02 06:16:37;;;;;;;18.63;12.97;;;10.40;99.90;;;;;;5072325;28;20265;-68
2023/10/02 06:19:06;;;;;;;21.50;13.70;;;10.50;99.90;;;;;;5072515;28;20201;-67
2023/10/02 06:21:40;;;;;;;24.17;13.87;;;10.60;99.90;;;;;;5072338;28;20197;-67
2023/10/02 06:24:09;;;;;;;21.70;13.20;;;10.70;99.90;;;;;;5072422;28;20197;-66
2023/10/02 06:26:49;;;;;;;18.37;12.07;;;10.80;99.90;;;;;;5072179;28;20201;-67
2023/10/02 06:29:22;;;;;;;19.50;13.10;;;10.90;99.90;;;;;;5072367;28;20225;-67
2023/10/02 06:31:58;;;;;;;16.40;11.63;;;10.90;99.90;;;;;;5072156;28;20564;-67
2023/10/02 06:34:26;;;;;;;18.50;12.33;;;11.00;99.90;;;;;;5072369;28;20568;-67
2023/10/02 06:37:02;;;;;;;19.73;12.60;;;11.10;99.90;;;;;;5072159;28;20201;-67
2023/10/02 06:39:34;;;;;;;23.00;13.50;;;11.10;99.90;;;;;;5072010;28;20208;-67
2023/10/02 06:42:05;;;;;;;20.93;13.23;;;11.20;99.90;;;;;;5071743;28;20761;-68
2023/10/02 06:44:37;;;;;;;17.00;12.10;;;11.50;99.90;;;;;;5072654;28;20657;-67
2023/10/02 06:47:04;;;;;;;19.03;12.60;;;11.60;99.90;;;;;;5075670;28;20599;-68
2023/10/02 06:49:33;;;;;;;19.47;11.93;;;11.80;99.90;;;;;;5075420;28;20241;-68
2023/10/02 06:52:11;;;;;;;19.03;12.87;;;12.00;99.90;;;;;;5075505;28;20204;-68
2023/10/02 06:54:42;;;;;;;18.43;12.73;;;12.10;99.90;;;;;;5075579;28;20250;-67
2023/10/02 06:57:13;;;;;;;19.30;11.63;;;12.30;99.90;;;;;;5075526;28;20220;-68
2023/10/02 06:59:40;;;;;;;18.97;12.40;;;12.50;99.90;;;;;;5075448;28;20200;-67
2023/10/02 07:02:09;;;;;;;16.97;11.97;;;12.70;99.90;;;;;;5075395;28;20231;-68
2023/10/02 07:04:36;;;;;;;17.23;11.90;;;12.80;99.90;;;;;;5075654;28;20207;-69
2023/10/02 07:07:10;;;;;;;18.73;11.90;;;13.00;99.90;;;;;;5076474;28;21200;-66
2023/10/02 07:09:37;;;;;;;18.87;11.57;;;13.20;99.90;;;;;;5093498;28;20311;-66
2023/10/02 07:12:13;;;;;;;18.93;11.67;;;13.30;99.90;;;;;;5094527;28;20200;-66
2023/10/02 07:14:42;;;;;;;19.13;12.90;;;13.50;99.90;;;;;;5095119;28;20597;-67
2023/10/02 07:17:16;;;;;;;19.47;13.07;;;13.70;99.90;;;;;;5095159;28;20192;-68
2023/10/02 07:19:49;;;;;;;20.50;13.30;;;13.80;99.90;;;;;;5095350;28;20193;-66
2023/10/02 07:22:23;;;;;;;23.20;14.03;;;14.00;99.90;;;;;;5094941;28;20192;-66
2023/10/02 07:24:52;;;;;;;22.97;13.77;;;14.30;99.90;;;;;;5094946;28;20287;-67
2023/10/02 07:27:26;;;;;;;19.73;13.23;;;14.50;99.90;;;;;;5094350;28;20196;-67
2023/10/02 07:29:56;;;;;;;21.37;12.73;;;14.70;99.90;;;;;;5094916;28;20232;-67
2023/10/02 07:32:24;;;;;;;23.70;12.80;;;14.90;99.90;;;;;;5094752;28;20184;-67
2023/10/02 07:34:52;;;;;;;19.03;12.67;;;15.20;99.90;;;;;;5094910;28;20605;-67
2023/10/02 07:37:22;;;;;;;19.92;12.07;;;15.40;99.90;;;;;;5094632;28;20192;-67
2023/10/02 07:39:56;;;;;;;20.00;12.48;;;15.60;99.90;;;;;;5094765;28;20678;-67
2023/10/02 07:42:24;;;;;;;22.55;11.80;;;15.80;99.90;;;;;;5094371;28;20762;-67
2023/10/02 07:44:51;;;;;;;16.08;10.85;;;15.90;99.90;;;;;;5094452;28;20200;-68
2023/10/02 07:47:20;;;;;;;17.85;11.88;;;16.10;99.90;;;;;;5094378;28;20228;-67
2023/10/02 07:49:48;;;;;;;21.40;13.07;;;16.30;99.90;;;;;;5094588;28;20228;-67
2023/10/02 07:52:26;;;;;;;16.13;11.48;;;16.50;99.90;;;;;;5094250;28;20607;-66
2023/10/02 07:54:58;;;;;;;16.27;10.48;;;16.80;99.90;;;;;;5094532;28;20200;-67
2023/10/02 07:57:30;;;;;;;15.60;10.32;;;16.90;99.90;;;;;;5094358;28;20200;-66
2023/10/02 07:59:57;;;;;;;16.70;10.63;;;17.10;99.90;;;;;;5094398;28;20329;-68
2023/10/02 08:02:30;;;;;;;16.13;11.25;;;17.40;99.90;;;;;;5094384;28;20196;-68
2023/10/02 08:04:59;;;;;;;17.38;11.13;;;17.60;99.90;;;;;;5094829;28;20284;-70
2023/10/02 08:07:26;;;;;;;18.00;11.27;;;17.80;99.90;;;;;;5094680;28;20193;-68
2023/10/02 08:09:52;;;;;;;14.68;10.55;;;17.90;99.90;;;;;;5094483;28;20568;-68
2023/10/02 08:12:30;;;;;;;18.48;10.63;;;18.10;99.90;;;;;;5093793;28;20199;-68
2023/10/02 08:14:59;;;;;;;15.43;10.32;;;18.30;99.90;;;;;;5094367;28;20192;-69
2023/10/02 08:20:16;;;;;;;17.42;10.48;;;18.90;99.90;;;;;;5094753;28;20193;-68
2023/10/02 08:22:45;;;;;;;16.02;10.45;;;19.20;99.90;;;;;;5096811;28;20283;-67
2023/10/02 08:25:13;;;;;;;14.43;10.23;;;19.40;99.90;;;;;;5096979;28;20283;-68
2023/10/02 08:27:41;;;;;;;13.93;10.30;;;19.60;99.90;;;;;;5093755;28;20283;-68
2023/10/02 08:30:19;;;;;;;15.32;9.88;;;19.70;99.90;;;;;;5093832;28;20219;-67
2023/10/02 08:32:48;;;;;;;14.38;10.35;;;19.90;99.90;;;;;;5092218;28;20192;-69
2023/10/02 08:35:16;;;;;;;18.85;10.50;;;20.30;99.90;;;;;;5092242;28;20291;-69
2023/10/02 08:37:43;;;;;;;17.58;10.77;;;20.60;99.90;;;;;;5093404;28;20196;-69
2023/10/02 08:40:11;;;;;;;14.68;10.65;;;20.90;99.90;;;;;;5093849;28;20598;-70
2023/10/02 08:42:46;;;;;;;15.90;9.82;;;21.20;99.90;;;;;;5093649;28;20202;-68
2023/10/02 08:45:18;;;;;;;15.45;10.30;;;21.50;99.90;;;;;;5093520;28;20655;-69
2023/10/02 08:47:47;;;;;;;13.25;10.13;;;21.80;99.90;;;;;;5093460;28;20200;-69
2023/10/02 08:50:15;;;;;;;14.35;9.88;;;22.10;99.90;;;;;;5091366;28;20224;-69
2023/10/02 08:52:47;;;;;;;17.23;10.45;;;22.30;99.90;;;;;;5093243;28;20311;-69
2023/10/02 08:55:35;;;;;;;16.15;10.13;;;22.60;99.90;;;;;;5080211;28;20192;-69
2023/10/02 08:58:15;;;;;;;16.02;9.45;;;23.10;99.90;;;;;;5093384;28;20200;-69
2023/10/02 09:01:20;;;;;;;16.25;9.80;;;23.40;99.90;;;;;;5093127;28;20227;-68
2023/10/02 09:04:21;;;;;;;17.55;10.50;;;23.70;99.90;;;;;;5093027;28;20674;-69
2023/10/02 09:06:44;;;;;;;14.57;9.80;;;23.90;99.90;;;;;;5072445;28;20200;-69
2023/10/02 09:09:26;;;;;;;16.88;10.13;;;24.00;99.90;;;;;;5084022;28;20290;-68
2023/10/02 09:11:56;;;;;;;15.77;10.35;;;24.10;99.90;;;;;;5093257;28;20282;-68
2023/10/02 09:14:39;;;;;;;14.80;9.80;;;23.70;99.90;;;;;;5092750;28;20655;-68
2023/10/02 09:17:16;;;;;;;16.77;9.95;;;23.80;99.90;;;;;;5093200;28;20598;-68
2023/10/02 09:19:50;;;;;;;16.75;10.13;;;24.10;99.90;;;;;;5092707;28;20196;-68
2023/10/02 09:22:18;;;;;;;13.52;9.35;;;24.30;99.30;;;;;;5093090;28;20202;-68
2023/10/02 09:24:57;;;;;;;12.73;9.00;;;24.20;98.60;;;;;;5092666;28;20258;-68
2023/10/02 09:27:27;;;;;;;14.38;10.13;;;24.40;98.10;;;;;;5092954;28;20596;-69
2023/10/02 09:32:47;;;;;;;14.18;9.75;;;24.70;96.80;;;;;;5109425;28;20278;-68
2023/10/02 09:35:21;;;;;;;16.52;9.15;;;25.10;96.00;;;;;;5109037;28;20196;-68
2023/10/02 09:37:49;;;;;;;14.63;10.43;;;24.90;95.20;;;;;;5092539;28;20231;-68
2023/10/02 09:40:16;;;;;;;16.83;10.38;;;24.90;95.50;;;;;;5092223;28;20199;-69
2023/10/02 09:42:48;;;;;;;14.63;9.98;;;25.10;95.20;;;;;;5092355;28;20196;-69
2023/10/02 09:45:30;;;;;;;12.40;9.40;;;25.50;94.30;;;;;;5092331;28;20639;-69
2023/10/02 09:48:03;;;;;;;15.52;9.85;;;26.00;93.40;;;;;;5092654;28;20200;-69
2023/10/02 09:50:34;;;;;;;13.32;9.90;;;25.70;93.10;;;;;;5092768;28;20252;-69
2023/10/02 09:53:08;;;;;;;16.42;9.38;;;26.10;92.50;;;;;;5092577;28;20196;-70
2023/10/02 09:55:47;;;;;;;17.13;9.80;;;26.30;92.60;;;;;;5092348;28;20204;-70
2023/10/02 09:58:27;;;;;;;13.93;9.93;;;26.90;90.50;;;;;;5092589;28;20200;-70
2023/10/02 10:01:33;;;;;;;14.57;10.23;;;26.90;90.30;;;;;;5092217;28;20188;-70
2023/10/02 10:04:00;;;;;;;16.73;11.25;;;27.40;89.50;;;;;;5092197;28;20655;-69
2023/10/02 10:06:41;;;;;;;14.32;10.57;;;27.40;87.10;;;;;;5092342;28;20643;-69
2023/10/02 10:09:25;;;;;;;13.82;10.20;;;28.00;84.70;;;;;;5092462;28;20223;-69
2023/10/02 10:14:36;;;;;;;17.33;10.88;;;28.20;80.20;;;;;;5091272;28;20524;-70
2023/10/02 10:17:03;;;;;;;15.00;10.60;;;28.30;80.50;;;;;;5088500;28;20219;-74
2023/10/02 10:19:33;;;;;;;14.43;11.18;;;28.70;79.40;;;;;;5084748;28;20950;-70
2023/10/02 10:22:04;;;;;;;14.65;11.48;;;29.40;79.40;;;;;;5087563;28;20198;-70
2023/10/02 10:24:56;;;;;;;15.52;11.05;;;29.00;78.40;;;;;;5088758;28;20276;-71
2023/10/02 10:27:58;;;;;;;15.52;11.68;;;29.90;77.70;;;;;;5095254;28;20207;-70
2023/10/02 10:30:39;;;;;;;13.88;10.57;;;30.80;74.10;;;;;;5092925;28;20218;-70
2023/10/02 10:33:40;;;;;;;14.32;10.82;;;30.90;71.50;;;;;;5099814;28;20191;-69
2023/10/02 10:36:33;;;;;;;17.52;11.57;;;31.30;66.90;;;;;;5096493;28;20199;-70
2023/10/02 10:39:30;;;;;;;16.23;11.93;;;31.20;65.40;;;;;;5096270;28;20268;-70
2023/10/02 10:42:00;;;;;;;16.17;11.63;;;31.10;64.20;;;;;;5090189;28;20560;-70
2023/10/02 10:44:33;;;;;;;20.50;12.55;;;32.00;65.20;;;;;;5097990;28;20223;-72
2023/10/02 10:47:03;;;;;;;17.10;11.82;;;32.50;63.00;;;;;;5095543;28;20196;-70
2023/10/02 10:49:53;;;;;;;16.20;12.13;;;33.30;61.00;;;;;;5095734;28;20272;-69
2023/10/02 10:52:34;;;;;;;14.93;12.05;;;33.40;58.10;;;;;;5094881;28;20200;-70
2023/10/02 10:55:32;;;;;;;14.25;11.38;;;33.60;55.10;;;;;;5079277;28;20200;-69
2023/10/02 10:57:59;;;;;;;15.20;11.75;;;34.00;53.30;;;;;;5095852;28;20261;-70
2023/10/02 11:00:27;;;;;;;20.10;13.05;;;34.90;50.30;;;;;;5111124;28;20687;-71
2023/10/02 11:03:00;;;;;;;14.80;12.45;;;34.10;50.40;;;;;;5104305;28;20222;-72
2023/10/02 11:05:32;;;;;;;16.35;12.30;;;34.40;50.00;;;;;;5094890;28;20192;-71
2023/10/02 11:08:23;;;;;;;15.25;12.27;;;35.30;48.60;;;;;;5095416;28;20616;-71
2023/10/02 11:11:00;;;;;;;15.63;11.88;;;35.90;47.40;;;;;;5094817;28;20223;-88
2023/10/02 11:13:28;;;;;;;14.23;11.70;;;36.30;45.60;;;;;;5089400;28;20192;-71
2023/10/02 11:16:07;;;;;;;15.50;11.95;;;36.20;44.30;;;;;;5083888;28;20228;-74
2023/10/02 11:18:39;;;;;;;18.75;11.93;;;36.60;42.30;;;;;;5074642;28;20291;-71
2023/10/02 11:21:22;;;;;;;16.50;12.63;;;36.30;41.80;;;;;;5074651;28;20211;-73
2023/10/02 11:23:49;;;;;;;14.35;11.70;;;36.90;39.70;;;;;;5074602;28;20285;-72
2023/10/02 11:26:23;;;;;;;14.75;11.73;;;37.00;38.00;;;;;;5074622;28;20196;-73
2023/10/02 11:28:50;;;;;;;16.95;12.05;;;36.50;37.60;;;;;;5082204;28;20666;-73
2023/10/02 11:31:30;;;;;;;15.15;12.45;;;37.00;36.30;;;;;;5074237;28;20722;-73
2023/10/02 11:34:01;;;;;;;17.10;12.77;;;37.70;34.50;;;;;;5073767;28;20666;-72
2023/10/02 11:36:33;;;;;;;16.85;12.50;;;38.20;33.10;;;;;;5072908;28;20254;-74
2023/10/02 11:39:01;;;;;;;19.23;13.18;;;38.70;32.80;;;;;;5077617;28;20192;-74
2023/10/02 11:41:29;;;;;;;17.35;12.70;;;38.60;31.30;;;;;;5082481;28;20691;-70
2023/10/02 11:43:57;;;;;;;17.63;13.07;;;38.30;31.30;;;;;;5074447;28;20226;-73
2023/10/02 11:46:23;;;;;;;17.80;13.63;;;38.40;31.10;;;;;;5084108;28;20204;-72
2023/10/02 11:48:51;;;;;;;18.58;13.30;;;38.50;31.50;;;;;;5080604;28;20252;-71
2023/10/02 11:51:18;;;;;;;18.50;14.15;;;38.60;30.50;;;;;;5082296;28;20301;-73
2023/10/02 11:53:44;;;;;;;18.95;14.27;;;38.10;30.10;;;;;;5085183;28;20207;-71
2023/10/02 11:56:11;;;;;;;20.38;15.52;;;39.10;29.80;;;;;;5091781;28;20198;-71
2023/10/02 11:58:39;;;;;;;18.95;14.95;;;39.80;29.40;;;;;;5094705;28;20551;-71
2023/10/02 12:01:06;;;;;;;20.00;15.73;;;40.00;28.90;;;;;;5094001;28;20765;-72
2023/10/02 12:03:36;;;;;;;23.17;17.73;;;39.60;28.10;;;;;;5091184;28;20647;-70
2023/10/02 12:06:02;;;;;;;21.25;17.38;;;38.60;28.90;;;;;;5091614;28;20196;-73
2023/10/02 12:08:33;;;;;;;20.50;16.58;;;40.00;28.30;;;;;;5094342;28;20199;-72
2023/10/02 12:11:00;;;;;;;23.50;18.08;;;40.40;28.10;;;;;;5094659;28;20231;-71
2023/10/02 12:13:28;;;;;;;22.13;17.23;;;40.70;27.70;;;;;;5094462;28;20203;-71
2023/10/02 12:15:57;;;;;;;21.27;16.42;;;41.20;27.70;;;;;;5094616;28;20203;-71
2023/10/02 12:18:24;;;;;;;19.75;16.00;;;41.70;25.60;;;;;;5087811;28;20199;-69
2023/10/02 12:20:51;;;;;;;20.25;16.27;;;41.20;24.80;;;;;;5094049;28;20203;-69
2023/10/02 12:23:18;;;;;;;21.55;16.90;;;41.40;25.60;;;;;;5094293;28;20196;-69
2023/10/02 12:25:48;;;;;;;19.73;16.42;;;42.00;24.40;;;;;;5094009;28;20196;-69
2023/10/02 12:28:15;;;;;;;22.83;18.33;;;42.60;24.30;;;;;;5093603;28;20192;-71
2023/10/02 12:30:42;;;;;;;22.30;18.75;;;43.20;24.50;;;;;;5092040;28;20219;-70
2023/10/02 12:33:10;;;;;;;24.58;17.95;;;42.60;23.00;;;;;;5088149;28;20196;-71
2023/10/02 12:35:37;;;;;;;26.27;20.63;;;41.80;22.60;;;;;;5093091;28;20205;-72
2023/10/02 12:38:04;;;;;;;24.35;18.60;;;41.30;22.50;;;;;;5093681;28;20249;-72
2023/10/02 12:40:34;;;;;;;27.33;21.23;;;42.00;22.70;;;;;;5093272;28;20284;-72
2023/10/02 12:43:02;;;;;;;28.30;21.90;;;41.90;21.00;;;;;;5092894;28;20196;-70
2023/10/02 12:45:35;;;;;;;32.80;23.15;;;40.10;20.00;;;;;;5093685;28;20196;-70
2023/10/02 12:48:06;;;;;;;29.60;21.52;;;41.00;20.40;;;;;;5093742;28;20203;-71
2023/10/02 12:50:38;;;;;;;26.08;21.08;;;41.00;20.10;;;;;;5083577;28;20251;-71
2023/10/02 12:53:05;;;;;;;30.10;22.75;;;40.90;19.60;;;;;;5080240;28;20295;-70
2023/10/02 12:55:32;;;;;;;27.92;22.17;;;41.30;20.10;;;;;;5084718;28;20205;-72
2023/10/02 12:57:59;;;;;;;27.77;21.75;;;42.90;19.10;;;;;;5077592;28;20631;-71
2023/10/02 13:00:25;;;;;;;25.98;21.77;;;43.10;18.50;;;;;;5082084;28;20192;-72
2023/10/02 13:02:52;;;;;;;28.52;21.73;;;43.60;18.50;;;;;;5080002;28;20197;-71
2023/10/02 13:05:19;;;;;;;26.23;21.63;;;43.30;18.00;;;;;;5073021;28;20816;-72
2023/10/02 13:07:48;;;;;;;25.58;21.48;;;43.90;17.90;;;;;;5081777;28;20202;-72
2023/10/02 13:10:15;;;;;;;29.15;23.05;;;44.20;17.40;;;;;;5087219;28;20586;-73
2023/10/02 13:12:42;;;;;;;28.85;22.67;;;44.60;17.50;;;;;;5089727;28;20196;-72
2023/10/02 13:15:13;;;;;;;28.55;21.65;;;43.40;15.70;;;;;;5087183;28;20593;-73